sensor_id;sensor_type;location;lat;lon;timestamp;P1;durP1;ratioP1;P2;durP2;ratioP2
74957;SDS011;63741;42.624;26.276;2023-04-19T00:00:33;9.15;;;6.65;;
74957;SDS011;63741;42.624;26.276;2023-04-19T00:03:00;10.38;;;6.68;;
74957;SDS011;63741;42.624;26.276;2023-04-19T00:05:28;8.25;;;6.65;;
74957;SDS011;63741;42.624;26.276;2023-04-19T00:07:55;9.55;;;6.95;;
74957;SDS011;63741;42.624;26.276;2023-04-19T00:10:22;8.45;;;6.72;;
74957;SDS011;63741;42.624;26.276;2023-04-19T00:12:49;10.98;;;7.35;;
74957;SDS011;63741;42.624;26.276;2023-04-19T00:15:17;9.73;;;7.57;;
74957;SDS011;63741;42.624;26.276;2023-04-19T00:17:44;9.73;;;7.40;;
74957;SDS011;63741;42.624;26.276;2023-04-19T00:20:11;10.43;;;7.47;;
74957;SDS011;63741;42.624;26.276;2023-04-19T00:22:39;9.88;;;7.70;;
74957;SDS011;63741;42.624;26.276;2023-04-19T00:25:06;10.30;;;7.32;;
74957;SDS011;63741;42.624;26.276;2023-04-19T00:27:33;10.68;;;7.82;;
74957;SDS011;63741;42.624;26.276;2023-04-19T00:30:01;12.13;;;7.80;;
74957;SDS011;63741;42.624;26.276;2023-04-19T00:32:29;11.25;;;8.48;;
74957;SDS011;63741;42.624;26.276;2023-04-19T00:34:56;12.00;;;8.15;;
74957;SDS011;63741;42.624;26.276;2023-04-19T00:37:23;10.10;;;7.78;;
74957;SDS011;63741;42.624;26.276;2023-04-19T00:39:50;11.45;;;8.32;;
74957;SDS011;63741;42.624;26.276;2023-04-19T00:42:17;12.82;;;8.57;;
74957;SDS011;63741;42.624;26.276;2023-04-19T00:44:45;12.98;;;8.93;;
74957;SDS011;63741;42.624;26.276;2023-04-19T00:47:14;12.18;;;8.70;;
74957;SDS011;63741;42.624;26.276;2023-04-19T00:49:41;12.63;;;8.95;;
74957;SDS011;63741;42.624;26.276;2023-04-19T00:52:08;10.85;;;8.23;;
74957;SDS011;63741;42.624;26.276;2023-04-19T00:54:35;6.22;;;4.47;;
74957;SDS011;63741;42.624;26.276;2023-04-19T00:57:03;5.72;;;3.53;;
74957;SDS011;63741;42.624;26.276;2023-04-19T00:59:31;4.28;;;2.85;;
74957;SDS011;63741;42.624;26.276;2023-04-19T01:02:02;4.43;;;3.25;;
74957;SDS011;63741;42.624;26.276;2023-04-19T01:04:29;3.38;;;2.58;;
74957;SDS011;63741;42.624;26.276;2023-04-19T01:06:56;3.78;;;2.60;;
74957;SDS011;63741;42.624;26.276;2023-04-19T01:09:23;5.47;;;2.55;;
74957;SDS011;63741;42.624;26.276;2023-04-19T01:11:50;2.70;;;2.00;;
74957;SDS011;63741;42.624;26.276;2023-04-19T01:14:17;3.25;;;2.00;;
74957;SDS011;63741;42.624;26.276;2023-04-19T01:16:45;4.93;;;2.90;;
74957;SDS011;63741;42.624;26.276;2023-04-19T01:19:13;4.70;;;2.92;;
74957;SDS011;63741;42.624;26.276;2023-04-19T01:21:40;4.07;;;2.80;;
74957;SDS011;63741;42.624;26.276;2023-04-19T01:24:08;5.93;;;3.72;;
74957;SDS011;63741;42.624;26.276;2023-04-19T01:26:35;4.95;;;3.28;;
74957;SDS011;63741;42.624;26.276;2023-04-19T01:29:01;4.90;;;3.00;;
74957;SDS011;63741;42.624;26.276;2023-04-19T01:31:28;10.60;;;5.00;;
74957;SDS011;63741;42.624;26.276;2023-04-19T01:33:55;6.35;;;4.90;;
74957;SDS011;63741;42.624;26.276;2023-04-19T01:36:22;6.30;;;4.82;;
74957;SDS011;63741;42.624;26.276;2023-04-19T01:38:49;7.57;;;5.10;;
74957;SDS011;63741;42.624;26.276;2023-04-19T01:41:16;6.15;;;4.10;;
74957;SDS011;63741;42.624;26.276;2023-04-19T01:43:45;7.70;;;5.68;;
74957;SDS011;63741;42.624;26.276;2023-04-19T01:46:13;6.90;;;5.20;;
74957;SDS011;63741;42.624;26.276;2023-04-19T01:48:40;8.40;;;5.30;;
74957;SDS011;63741;42.624;26.276;2023-04-19T01:51:07;7.65;;;5.38;;
74957;SDS011;63741;42.624;26.276;2023-04-19T01:53:33;7.95;;;5.70;;
74957;SDS011;63741;42.624;26.276;2023-04-19T01:56:00;7.32;;;5.82;;
74957;SDS011;63741;42.624;26.276;2023-04-19T01:58:27;7.60;;;5.88;;
74957;SDS011;63741;42.624;26.276;2023-04-19T02:00:54;8.73;;;6.50;;
74957;SDS011;63741;42.624;26.276;2023-04-19T02:03:21;8.20;;;6.80;;
74957;SDS011;63741;42.624;26.276;2023-04-19T02:05:48;10.45;;;6.97;;
74957;SDS011;63741;42.624;26.276;2023-04-19T02:08:15;10.80;;;7.85;;
74957;SDS011;63741;42.624;26.276;2023-04-19T02:10:42;11.20;;;7.90;;
74957;SDS011;63741;42.624;26.276;2023-04-19T02:13:09;12.35;;;8.45;;
74957;SDS011;63741;42.624;26.276;2023-04-19T02:15:36;11.85;;;7.78;;
74957;SDS011;63741;42.624;26.276;2023-04-19T02:18:03;11.18;;;8.13;;
74957;SDS011;63741;42.624;26.276;2023-04-19T02:20:32;10.63;;;8.40;;
74957;SDS011;63741;42.624;26.276;2023-04-19T02:22:59;9.63;;;7.65;;
74957;SDS011;63741;42.624;26.276;2023-04-19T02:25:26;14.90;;;10.40;;
74957;SDS011;63741;42.624;26.276;2023-04-19T02:27:53;21.20;;;13.65;;
74957;SDS011;63741;42.624;26.276;2023-04-19T02:30:20;24.67;;;15.35;;
74957;SDS011;63741;42.624;26.276;2023-04-19T02:32:48;14.90;;;9.85;;
74957;SDS011;63741;42.624;26.276;2023-04-19T02:35:16;13.35;;;8.93;;
74957;SDS011;63741;42.624;26.276;2023-04-19T02:37:43;11.95;;;8.25;;
74957;SDS011;63741;42.624;26.276;2023-04-19T02:40:10;11.80;;;8.27;;
74957;SDS011;63741;42.624;26.276;2023-04-19T02:42:37;13.73;;;9.43;;
74957;SDS011;63741;42.624;26.276;2023-04-19T02:45:04;17.52;;;10.95;;
74957;SDS011;63741;42.624;26.276;2023-04-19T02:47:31;16.50;;;10.55;;
74957;SDS011;63741;42.624;26.276;2023-04-19T02:49:58;16.60;;;10.20;;
74957;SDS011;63741;42.624;26.276;2023-04-19T02:52:26;12.23;;;8.48;;
74957;SDS011;63741;42.624;26.276;2023-04-19T02:54:53;12.75;;;8.80;;
74957;SDS011;63741;42.624;26.276;2023-04-19T02:57:20;11.15;;;8.85;;
74957;SDS011;63741;42.624;26.276;2023-04-19T02:59:47;13.57;;;8.98;;
74957;SDS011;63741;42.624;26.276;2023-04-19T03:02:14;12.55;;;9.55;;
74957;SDS011;63741;42.624;26.276;2023-04-19T03:04:41;15.18;;;10.27;;
74957;SDS011;63741;42.624;26.276;2023-04-19T03:07:09;14.05;;;9.90;;
74957;SDS011;63741;42.624;26.276;2023-04-19T03:09:38;16.00;;;11.07;;
74957;SDS011;63741;42.624;26.276;2023-04-19T03:12:06;19.67;;;11.82;;
74957;SDS011;63741;42.624;26.276;2023-04-19T03:14:33;21.17;;;12.98;;
74957;SDS011;63741;42.624;26.276;2023-04-19T03:17:00;17.90;;;11.73;;
74957;SDS011;63741;42.624;26.276;2023-04-19T03:19:28;18.73;;;11.65;;
74957;SDS011;63741;42.624;26.276;2023-04-19T03:21:55;24.80;;;14.70;;
74957;SDS011;63741;42.624;26.276;2023-04-19T03:24:26;23.13;;;14.00;;
74957;SDS011;63741;42.624;26.276;2023-04-19T03:26:56;19.08;;;13.30;;
74957;SDS011;63741;42.624;26.276;2023-04-19T03:29:26;14.93;;;11.00;;
74957;SDS011;63741;42.624;26.276;2023-04-19T03:32:06;14.23;;;9.48;;
74957;SDS011;63741;42.624;26.276;2023-04-19T03:34:35;10.07;;;7.47;;
74957;SDS011;63741;42.624;26.276;2023-04-19T03:37:01;6.18;;;4.97;;
74957;SDS011;63741;42.624;26.276;2023-04-19T03:39:30;8.30;;;5.30;;
74957;SDS011;63741;42.624;26.276;2023-04-19T03:42:01;6.32;;;4.30;;
74957;SDS011;63741;42.624;26.276;2023-04-19T03:44:42;6.32;;;2.70;;
74957;SDS011;63741;42.624;26.276;2023-04-19T03:47:09;5.72;;;2.70;;
74957;SDS011;63741;42.624;26.276;2023-04-19T03:49:41;4.28;;;2.63;;
74957;SDS011;63741;42.624;26.276;2023-04-19T03:52:08;4.20;;;2.92;;
74957;SDS011;63741;42.624;26.276;2023-04-19T03:54:35;4.50;;;3.08;;
74957;SDS011;63741;42.624;26.276;2023-04-19T03:57:06;6.03;;;3.35;;
74957;SDS011;63741;42.624;26.276;2023-04-19T03:59:36;4.90;;;3.60;;
74957;SDS011;63741;42.624;26.276;2023-04-19T04:02:04;4.65;;;3.30;;
74957;SDS011;63741;42.624;26.276;2023-04-19T04:04:32;3.85;;;3.20;;
74957;SDS011;63741;42.624;26.276;2023-04-19T04:06:59;3.97;;;3.28;;
74957;SDS011;63741;42.624;26.276;2023-04-19T04:09:26;3.80;;;3.20;;
74957;SDS011;63741;42.624;26.276;2023-04-19T04:11:53;5.22;;;3.55;;
74957;SDS011;63741;42.624;26.276;2023-04-19T04:14:21;5.03;;;3.30;;
74957;SDS011;63741;42.624;26.276;2023-04-19T04:16:48;7.35;;;3.60;;
74957;SDS011;63741;42.624;26.276;2023-04-19T04:19:16;8.73;;;5.25;;
74957;SDS011;63741;42.624;26.276;2023-04-19T04:21:43;10.43;;;7.78;;
74957;SDS011;63741;42.624;26.276;2023-04-19T04:24:11;7.72;;;5.65;;
74957;SDS011;63741;42.624;26.276;2023-04-19T04:26:53;6.68;;;5.10;;
74957;SDS011;63741;42.624;26.276;2023-04-19T04:29:24;8.00;;;4.78;;
74957;SDS011;63741;42.624;26.276;2023-04-19T04:31:54;6.25;;;4.38;;
74957;SDS011;63741;42.624;26.276;2023-04-19T04:34:26;7.05;;;3.30;;
74957;SDS011;63741;42.624;26.276;2023-04-19T04:37:02;6.07;;;3.40;;
74957;SDS011;63741;42.624;26.276;2023-04-19T04:39:29;7.63;;;4.47;;
74957;SDS011;63741;42.624;26.276;2023-04-19T04:41:56;5.00;;;3.45;;
74957;SDS011;63741;42.624;26.276;2023-04-19T04:44:25;5.35;;;3.33;;
74957;SDS011;63741;42.624;26.276;2023-04-19T04:46:53;4.20;;;3.28;;
74957;SDS011;63741;42.624;26.276;2023-04-19T04:49:24;7.07;;;3.55;;
74957;SDS011;63741;42.624;26.276;2023-04-19T04:51:51;3.78;;;3.08;;
74957;SDS011;63741;42.624;26.276;2023-04-19T04:54:19;5.15;;;3.40;;
74957;SDS011;63741;42.624;26.276;2023-04-19T04:56:47;5.30;;;3.53;;
74957;SDS011;63741;42.624;26.276;2023-04-19T04:59:14;3.65;;;3.05;;
74957;SDS011;63741;42.624;26.276;2023-04-19T05:01:45;5.00;;;3.38;;
74957;SDS011;63741;42.624;26.276;2023-04-19T05:04:13;5.50;;;3.00;;
74957;SDS011;63741;42.624;26.276;2023-04-19T05:06:41;4.00;;;2.95;;
74957;SDS011;63741;42.624;26.276;2023-04-19T05:09:16;2.83;;;2.05;;
74957;SDS011;63741;42.624;26.276;2023-04-19T05:11:44;2.90;;;2.28;;
74957;SDS011;63741;42.624;26.276;2023-04-19T05:14:11;3.83;;;2.55;;
74957;SDS011;63741;42.624;26.276;2023-04-19T05:16:39;4.43;;;2.85;;
74957;SDS011;63741;42.624;26.276;2023-04-19T05:19:06;6.18;;;3.40;;
74957;SDS011;63741;42.624;26.276;2023-04-19T05:21:39;3.75;;;2.78;;
74957;SDS011;63741;42.624;26.276;2023-04-19T05:24:08;3.90;;;2.85;;
74957;SDS011;63741;42.624;26.276;2023-04-19T05:26:36;4.07;;;2.60;;
74957;SDS011;63741;42.624;26.276;2023-04-19T05:29:04;3.40;;;2.30;;
74957;SDS011;63741;42.624;26.276;2023-04-19T05:31:43;3.25;;;1.98;;
74957;SDS011;63741;42.624;26.276;2023-04-19T05:34:16;3.70;;;1.45;;
74957;SDS011;63741;42.624;26.276;2023-04-19T05:36:47;2.92;;;1.63;;
74957;SDS011;63741;42.624;26.276;2023-04-19T05:39:14;3.13;;;1.50;;
74957;SDS011;63741;42.624;26.276;2023-04-19T05:41:41;2.85;;;1.50;;
74957;SDS011;63741;42.624;26.276;2023-04-19T05:44:08;2.17;;;1.55;;
74957;SDS011;63741;42.624;26.276;2023-04-19T05:46:35;3.42;;;1.83;;
74957;SDS011;63741;42.624;26.276;2023-04-19T05:49:04;2.42;;;1.48;;
74957;SDS011;63741;42.624;26.276;2023-04-19T05:51:50;2.05;;;1.40;;
74957;SDS011;63741;42.624;26.276;2023-04-19T05:54:33;3.55;;;1.90;;
74957;SDS011;63741;42.624;26.276;2023-04-19T05:57:03;2.55;;;1.58;;
74957;SDS011;63741;42.624;26.276;2023-04-19T05:59:30;3.38;;;2.08;;
74957;SDS011;63741;42.624;26.276;2023-04-19T06:01:57;4.47;;;2.22;;
74957;SDS011;63741;42.624;26.276;2023-04-19T06:04:26;1.80;;;1.15;;
74957;SDS011;63741;42.624;26.276;2023-04-19T06:06:53;1.90;;;1.00;;
74957;SDS011;63741;42.624;26.276;2023-04-19T06:09:20;3.17;;;1.63;;
74957;SDS011;63741;42.624;26.276;2023-04-19T06:11:47;3.33;;;1.63;;
74957;SDS011;63741;42.624;26.276;2023-04-19T06:14:17;3.70;;;1.90;;
74957;SDS011;63741;42.624;26.276;2023-04-19T06:16:45;6.15;;;2.13;;
74957;SDS011;63741;42.624;26.276;2023-04-19T06:19:12;4.82;;;1.83;;
74957;SDS011;63741;42.624;26.276;2023-04-19T06:21:39;3.33;;;1.40;;
74957;SDS011;63741;42.624;26.276;2023-04-19T06:24:06;2.20;;;1.33;;
74957;SDS011;63741;42.624;26.276;2023-04-19T06:26:33;9.45;;;2.80;;
74957;SDS011;63741;42.624;26.276;2023-04-19T06:29:01;3.30;;;1.60;;
74957;SDS011;63741;42.624;26.276;2023-04-19T06:31:28;5.53;;;2.13;;
74957;SDS011;63741;42.624;26.276;2023-04-19T06:33:55;2.53;;;1.65;;
74957;SDS011;63741;42.624;26.276;2023-04-19T06:36:22;3.33;;;1.60;;
74957;SDS011;63741;42.624;26.276;2023-04-19T06:38:49;22.13;;;4.72;;
74957;SDS011;63741;42.624;26.276;2023-04-19T06:41:16;5.72;;;2.05;;
74957;SDS011;63741;42.624;26.276;2023-04-19T06:43:43;5.88;;;2.67;;
74957;SDS011;63741;42.624;26.276;2023-04-19T06:46:10;6.53;;;2.90;;
74957;SDS011;63741;42.624;26.276;2023-04-19T06:48:39;4.55;;;1.30;;
74957;SDS011;63741;42.624;26.276;2023-04-19T06:51:07;1.83;;;1.10;;
74957;SDS011;63741;42.624;26.276;2023-04-19T06:53:34;6.35;;;2.40;;
74957;SDS011;63741;42.624;26.276;2023-04-19T06:56:02;10.25;;;4.03;;
74957;SDS011;63741;42.624;26.276;2023-04-19T06:58:30;3.65;;;1.70;;
74957;SDS011;63741;42.624;26.276;2023-04-19T07:01:00;11.73;;;3.25;;
74957;SDS011;63741;42.624;26.276;2023-04-19T07:03:30;3.35;;;1.60;;
74957;SDS011;63741;42.624;26.276;2023-04-19T07:05:58;2.35;;;0.90;;
74957;SDS011;63741;42.624;26.276;2023-04-19T07:08:25;2.45;;;0.80;;
74957;SDS011;63741;42.624;26.276;2023-04-19T07:11:08;1.50;;;0.77;;
74957;SDS011;63741;42.624;26.276;2023-04-19T07:13:34;1.02;;;0.70;;
74957;SDS011;63741;42.624;26.276;2023-04-19T07:16:04;8.07;;;2.38;;
74957;SDS011;63741;42.624;26.276;2023-04-19T07:18:32;2.83;;;1.30;;
74957;SDS011;63741;42.624;26.276;2023-04-19T07:20:59;11.82;;;2.78;;
74957;SDS011;63741;42.624;26.276;2023-04-19T07:23:26;13.30;;;3.05;;
74957;SDS011;63741;42.624;26.276;2023-04-19T07:25:53;10.80;;;2.30;;
74957;SDS011;63741;42.624;26.276;2023-04-19T07:28:20;4.97;;;1.92;;
74957;SDS011;63741;42.624;26.276;2023-04-19T07:30:47;10.25;;;2.70;;
74957;SDS011;63741;42.624;26.276;2023-04-19T07:33:14;4.10;;;1.35;;
74957;SDS011;63741;42.624;26.276;2023-04-19T07:35:41;10.13;;;1.70;;
74957;SDS011;63741;42.624;26.276;2023-04-19T07:38:08;6.22;;;2.75;;
74957;SDS011;63741;42.624;26.276;2023-04-19T07:40:35;8.10;;;3.20;;
74957;SDS011;63741;42.624;26.276;2023-04-19T07:43:02;2.42;;;1.00;;
74957;SDS011;63741;42.624;26.276;2023-04-19T07:45:29;3.55;;;0.90;;
74957;SDS011;63741;42.624;26.276;2023-04-19T07:47:56;4.47;;;1.20;;
74957;SDS011;63741;42.624;26.276;2023-04-19T07:50:26;1.70;;;0.70;;
74957;SDS011;63741;42.624;26.276;2023-04-19T07:52:53;3.50;;;1.08;;
74957;SDS011;63741;42.624;26.276;2023-04-19T07:55:20;2.17;;;0.70;;
74957;SDS011;63741;42.624;26.276;2023-04-19T07:57:47;2.08;;;0.90;;
74957;SDS011;63741;42.624;26.276;2023-04-19T08:00:15;1.42;;;0.60;;
74957;SDS011;63741;42.624;26.276;2023-04-19T08:02:44;2.28;;;0.60;;
74957;SDS011;63741;42.624;26.276;2023-04-19T08:05:12;1.35;;;0.55;;
74957;SDS011;63741;42.624;26.276;2023-04-19T08:07:40;1.35;;;0.50;;
74957;SDS011;63741;42.624;26.276;2023-04-19T08:10:08;0.80;;;0.30;;
74957;SDS011;63741;42.624;26.276;2023-04-19T08:12:35;7.20;;;0.80;;
74957;SDS011;63741;42.624;26.276;2023-04-19T08:15:15;5.55;;;1.13;;
74957;SDS011;63741;42.624;26.276;2023-04-19T08:18:02;7.90;;;1.27;;
74957;SDS011;63741;42.624;26.276;2023-04-19T08:20:33;1.55;;;0.70;;
74957;SDS011;63741;42.624;26.276;2023-04-19T08:23:00;6.22;;;0.95;;
74957;SDS011;63741;42.624;26.276;2023-04-19T08:25:43;2.50;;;0.98;;
74957;SDS011;63741;42.624;26.276;2023-04-19T08:28:10;1.75;;;0.63;;
74957;SDS011;63741;42.624;26.276;2023-04-19T08:30:38;2.45;;;0.47;;
74957;SDS011;63741;42.624;26.276;2023-04-19T08:33:06;1.50;;;0.80;;
74957;SDS011;63741;42.624;26.276;2023-04-19T08:35:39;3.75;;;1.20;;
74957;SDS011;63741;42.624;26.276;2023-04-19T08:38:07;4.47;;;1.52;;
74957;SDS011;63741;42.624;26.276;2023-04-19T08:40:34;1.92;;;1.35;;
74957;SDS011;63741;42.624;26.276;2023-04-19T08:43:04;2.85;;;1.10;;
74957;SDS011;63741;42.624;26.276;2023-04-19T08:45:32;2.72;;;1.35;;
74957;SDS011;63741;42.624;26.276;2023-04-19T08:48:00;5.80;;;1.10;;
74957;SDS011;63741;42.624;26.276;2023-04-19T08:50:29;8.77;;;3.70;;
74957;SDS011;63741;42.624;26.276;2023-04-19T08:53:07;0.82;;;0.45;;
74957;SDS011;63741;42.624;26.276;2023-04-19T08:55:42;0.77;;;0.40;;
74957;SDS011;63741;42.624;26.276;2023-04-19T09:01:17;1.58;;;0.73;;
74957;SDS011;63741;42.624;26.276;2023-04-19T09:04:01;1.35;;;0.60;;
74957;SDS011;63741;42.624;26.276;2023-04-19T09:06:50;0.30;;;0.30;;
74957;SDS011;63741;42.624;26.276;2023-04-19T09:09:19;1.15;;;0.73;;
74957;SDS011;63741;42.624;26.276;2023-04-19T09:14:17;2.67;;;0.50;;
74957;SDS011;63741;42.624;26.276;2023-04-19T09:16:46;1.25;;;0.50;;
74957;SDS011;63741;42.624;26.276;2023-04-19T09:19:13;2.03;;;0.60;;
74957;SDS011;63741;42.624;26.276;2023-04-19T09:21:50;2.63;;;0.68;;
74957;SDS011;63741;42.624;26.276;2023-04-19T09:24:36;1.20;;;0.70;;
74957;SDS011;63741;42.624;26.276;2023-04-19T09:27:28;1.92;;;1.00;;
74957;SDS011;63741;42.624;26.276;2023-04-19T09:30:00;1.85;;;1.13;;
74957;SDS011;63741;42.624;26.276;2023-04-19T09:32:28;2.15;;;1.10;;
74957;SDS011;63741;42.624;26.276;2023-04-19T09:35:11;3.10;;;1.17;;
74957;SDS011;63741;42.624;26.276;2023-04-19T09:37:38;3.42;;;1.27;;
74957;SDS011;63741;42.624;26.276;2023-04-19T09:40:27;2.60;;;1.70;;
74957;SDS011;63741;42.624;26.276;2023-04-19T09:42:54;3.13;;;1.67;;
74957;SDS011;63741;42.624;26.276;2023-04-19T09:45:44;2.05;;;1.33;;
74957;SDS011;63741;42.624;26.276;2023-04-19T09:48:12;2.03;;;1.23;;
74957;SDS011;63741;42.624;26.276;2023-04-19T09:50:52;2.00;;;1.30;;
74957;SDS011;63741;42.624;26.276;2023-04-19T09:53:29;2.58;;;0.80;;
74957;SDS011;63741;42.624;26.276;2023-04-19T09:56:00;3.13;;;1.00;;
74957;SDS011;63741;42.624;26.276;2023-04-19T09:58:30;2.78;;;1.02;;
74957;SDS011;63741;42.624;26.276;2023-04-19T10:01:14;2.97;;;1.20;;
74957;SDS011;63741;42.624;26.276;2023-04-19T10:03:43;2.17;;;1.13;;
74957;SDS011;63741;42.624;26.276;2023-04-19T10:06:15;2.30;;;1.42;;
74957;SDS011;63741;42.624;26.276;2023-04-19T10:09:03;4.05;;;1.60;;
74957;SDS011;63741;42.624;26.276;2023-04-19T10:11:31;2.63;;;1.52;;
74957;SDS011;63741;42.624;26.276;2023-04-19T10:14:05;2.38;;;1.52;;
74957;SDS011;63741;42.624;26.276;2023-04-19T10:16:35;2.90;;;1.48;;
74957;SDS011;63741;42.624;26.276;2023-04-19T10:19:10;4.53;;;1.75;;
74957;SDS011;63741;42.624;26.276;2023-04-19T10:21:42;5.05;;;2.35;;
74957;SDS011;63741;42.624;26.276;2023-04-19T10:24:13;4.22;;;2.60;;
74957;SDS011;63741;42.624;26.276;2023-04-19T10:32:37;4.32;;;2.33;;
74957;SDS011;63741;42.624;26.276;2023-04-19T10:35:06;7.18;;;2.85;;
74957;SDS011;63741;42.624;26.276;2023-04-19T10:38:00;5.45;;;2.97;;
74957;SDS011;63741;42.624;26.276;2023-04-19T10:43:18;6.68;;;3.28;;
74957;SDS011;63741;42.624;26.276;2023-04-19T10:45:45;9.35;;;4.57;;
74957;SDS011;63741;42.624;26.276;2023-04-19T10:51:02;6.72;;;3.60;;
74957;SDS011;63741;42.624;26.276;2023-04-19T10:56:18;3.50;;;2.22;;
74957;SDS011;63741;42.624;26.276;2023-04-19T11:01:37;5.28;;;2.63;;
74957;SDS011;63741;42.624;26.276;2023-04-19T11:04:18;5.63;;;2.30;;
74957;SDS011;63741;42.624;26.276;2023-04-19T11:12:02;6.90;;;2.60;;
74957;SDS011;63741;42.624;26.276;2023-04-19T11:14:50;2.70;;;2.05;;
74957;SDS011;63741;42.624;26.276;2023-04-19T11:17:23;3.92;;;2.47;;
74957;SDS011;63741;42.624;26.276;2023-04-19T11:19:57;5.45;;;2.80;;
74957;SDS011;63741;42.624;26.276;2023-04-19T11:22:30;4.03;;;3.20;;
74957;SDS011;63741;42.624;26.276;2023-04-19T11:25:04;4.57;;;2.63;;
74957;SDS011;63741;42.624;26.276;2023-04-19T11:27:36;4.45;;;2.47;;
74957;SDS011;63741;42.624;26.276;2023-04-19T11:30:07;7.35;;;3.10;;
74957;SDS011;63741;42.624;26.276;2023-04-19T11:32:35;9.68;;;4.18;;
74957;SDS011;63741;42.624;26.276;2023-04-19T11:35:08;5.53;;;3.40;;
74957;SDS011;63741;42.624;26.276;2023-04-19T11:37:36;6.07;;;2.97;;
74957;SDS011;63741;42.624;26.276;2023-04-19T11:40:07;5.57;;;3.10;;
74957;SDS011;63741;42.624;26.276;2023-04-19T11:42:34;7.43;;;3.95;;
74957;SDS011;63741;42.624;26.276;2023-04-19T11:45:01;5.40;;;2.72;;
74957;SDS011;63741;42.624;26.276;2023-04-19T11:47:29;13.13;;;6.90;;
74957;SDS011;63741;42.624;26.276;2023-04-19T11:49:56;4.10;;;2.70;;
74957;SDS011;63741;42.624;26.276;2023-04-19T11:52:48;7.82;;;3.65;;
74957;SDS011;63741;42.624;26.276;2023-04-19T11:55:17;5.55;;;3.60;;
74957;SDS011;63741;42.624;26.276;2023-04-19T11:57:45;4.65;;;2.97;;
74957;SDS011;63741;42.624;26.276;2023-04-19T12:00:13;8.13;;;3.25;;
74957;SDS011;63741;42.624;26.276;2023-04-19T12:02:41;7.45;;;3.95;;
74957;SDS011;63741;42.624;26.276;2023-04-19T12:05:13;11.35;;;5.05;;
74957;SDS011;63741;42.624;26.276;2023-04-19T12:10:29;6.80;;;3.28;;
74957;SDS011;63741;42.624;26.276;2023-04-19T12:12:56;6.95;;;3.17;;
74957;SDS011;63741;42.624;26.276;2023-04-19T12:15:39;5.95;;;2.63;;
74957;SDS011;63741;42.624;26.276;2023-04-19T12:18:07;4.15;;;2.67;;
74957;SDS011;63741;42.624;26.276;2023-04-19T12:20:34;10.32;;;2.47;;
74957;SDS011;63741;42.624;26.276;2023-04-19T12:23:03;4.40;;;2.40;;
74957;SDS011;63741;42.624;26.276;2023-04-19T12:25:31;4.70;;;2.50;;
74957;SDS011;63741;42.624;26.276;2023-04-19T12:28:01;4.63;;;2.15;;
74957;SDS011;63741;42.624;26.276;2023-04-19T12:30:29;4.75;;;2.40;;
74957;SDS011;63741;42.624;26.276;2023-04-19T12:32:57;5.22;;;2.50;;
74957;SDS011;63741;42.624;26.276;2023-04-19T12:35:24;6.00;;;2.28;;
74957;SDS011;63741;42.624;26.276;2023-04-19T12:37:53;5.10;;;2.90;;
74957;SDS011;63741;42.624;26.276;2023-04-19T12:40:22;7.20;;;2.30;;
74957;SDS011;63741;42.624;26.276;2023-04-19T12:42:50;6.53;;;2.60;;
74957;SDS011;63741;42.624;26.276;2023-04-19T12:45:18;5.72;;;3.33;;
74957;SDS011;63741;42.624;26.276;2023-04-19T12:47:46;9.00;;;2.90;;
74957;SDS011;63741;42.624;26.276;2023-04-19T12:50:14;5.80;;;2.80;;
74957;SDS011;63741;42.624;26.276;2023-04-19T12:52:41;5.82;;;3.35;;
74957;SDS011;63741;42.624;26.276;2023-04-19T12:55:10;4.40;;;2.63;;
74957;SDS011;63741;42.624;26.276;2023-04-19T12:57:37;6.82;;;2.40;;
74957;SDS011;63741;42.624;26.276;2023-04-19T13:00:04;4.82;;;2.47;;
74957;SDS011;63741;42.624;26.276;2023-04-19T13:02:33;6.15;;;3.08;;
74957;SDS011;63741;42.624;26.276;2023-04-19T13:05:00;5.40;;;3.13;;
74957;SDS011;63741;42.624;26.276;2023-04-19T13:07:27;7.05;;;2.75;;
74957;SDS011;63741;42.624;26.276;2023-04-19T13:09:54;7.75;;;2.67;;
74957;SDS011;63741;42.624;26.276;2023-04-19T13:12:22;7.05;;;3.08;;
74957;SDS011;63741;42.624;26.276;2023-04-19T13:14:49;6.60;;;4.40;;
74957;SDS011;63741;42.624;26.276;2023-04-19T13:17:18;11.18;;;3.53;;
74957;SDS011;63741;42.624;26.276;2023-04-19T13:19:45;9.07;;;3.28;;
74957;SDS011;63741;42.624;26.276;2023-04-19T13:22:13;10.60;;;2.92;;
74957;SDS011;63741;42.624;26.276;2023-04-19T13:24:40;11.73;;;3.65;;
74957;SDS011;63741;42.624;26.276;2023-04-19T13:27:07;5.07;;;2.72;;
74957;SDS011;63741;42.624;26.276;2023-04-19T13:29:34;4.55;;;2.65;;
74957;SDS011;63741;42.624;26.276;2023-04-19T13:32:02;5.18;;;2.60;;
74957;SDS011;63741;42.624;26.276;2023-04-19T13:34:33;10.85;;;3.30;;
74957;SDS011;63741;42.624;26.276;2023-04-19T13:37:00;8.90;;;2.47;;
74957;SDS011;63741;42.624;26.276;2023-04-19T13:39:27;6.28;;;2.70;;
74957;SDS011;63741;42.624;26.276;2023-04-19T13:41:54;4.57;;;2.80;;
74957;SDS011;63741;42.624;26.276;2023-04-19T13:44:21;17.05;;;3.50;;
74957;SDS011;63741;42.624;26.276;2023-04-19T13:46:48;16.52;;;3.40;;
74957;SDS011;63741;42.624;26.276;2023-04-19T13:49:16;7.28;;;3.33;;
74957;SDS011;63741;42.624;26.276;2023-04-19T13:51:43;5.00;;;3.00;;
74957;SDS011;63741;42.624;26.276;2023-04-19T13:54:16;4.10;;;2.80;;
74957;SDS011;63741;42.624;26.276;2023-04-19T13:56:45;7.03;;;2.80;;
74957;SDS011;63741;42.624;26.276;2023-04-19T13:59:15;7.00;;;2.70;;
74957;SDS011;63741;42.624;26.276;2023-04-19T14:01:42;9.60;;;3.30;;
74957;SDS011;63741;42.624;26.276;2023-04-19T14:04:09;7.50;;;2.90;;
74957;SDS011;63741;42.624;26.276;2023-04-19T14:06:36;8.18;;;2.90;;
74957;SDS011;63741;42.624;26.276;2023-04-19T14:09:03;10.35;;;3.20;;
74957;SDS011;63741;42.624;26.276;2023-04-19T14:11:30;6.80;;;2.38;;
74957;SDS011;63741;42.624;26.276;2023-04-19T14:13:58;7.18;;;3.03;;
74957;SDS011;63741;42.624;26.276;2023-04-19T14:16:25;11.18;;;2.80;;
74957;SDS011;63741;42.624;26.276;2023-04-19T14:18:52;12.20;;;2.80;;
74957;SDS011;63741;42.624;26.276;2023-04-19T14:21:19;3.30;;;2.00;;
74957;SDS011;63741;42.624;26.276;2023-04-19T14:23:46;6.47;;;2.50;;
74957;SDS011;63741;42.624;26.276;2023-04-19T14:26:13;8.00;;;3.70;;
74957;SDS011;63741;42.624;26.276;2023-04-19T14:28:40;7.72;;;2.63;;
74957;SDS011;63741;42.624;26.276;2023-04-19T14:31:07;5.20;;;2.60;;
74957;SDS011;63741;42.624;26.276;2023-04-19T14:33:34;6.32;;;2.30;;
74957;SDS011;63741;42.624;26.276;2023-04-19T14:36:01;4.53;;;2.03;;
74957;SDS011;63741;42.624;26.276;2023-04-19T14:38:28;5.00;;;2.63;;
74957;SDS011;63741;42.624;26.276;2023-04-19T14:40:55;5.47;;;2.15;;
74957;SDS011;63741;42.624;26.276;2023-04-19T14:43:22;4.40;;;2.60;;
74957;SDS011;63741;42.624;26.276;2023-04-19T14:45:49;5.57;;;2.10;;
74957;SDS011;63741;42.624;26.276;2023-04-19T14:48:17;6.97;;;2.00;;
74957;SDS011;63741;42.624;26.276;2023-04-19T14:50:47;26.27;;;4.55;;
74957;SDS011;63741;42.624;26.276;2023-04-19T14:53:14;6.22;;;3.20;;
74957;SDS011;63741;42.624;26.276;2023-04-19T14:55:41;4.28;;;2.20;;
74957;SDS011;63741;42.624;26.276;2023-04-19T14:58:08;7.25;;;2.30;;
74957;SDS011;63741;42.624;26.276;2023-04-19T15:00:35;7.43;;;2.80;;
74957;SDS011;63741;42.624;26.276;2023-04-19T15:03:02;7.97;;;2.60;;
74957;SDS011;63741;42.624;26.276;2023-04-19T15:05:29;5.50;;;3.65;;
74957;SDS011;63741;42.624;26.276;2023-04-19T15:08:02;13.68;;;5.68;;
74957;SDS011;63741;42.624;26.276;2023-04-19T15:10:29;21.35;;;8.15;;
74957;SDS011;63741;42.624;26.276;2023-04-19T15:12:59;8.77;;;4.60;;